createdAt,value
2018-08-03T00:00:42.133Z,53.61
2018-08-03T00:02:46.958Z,54.14
2018-08-03T00:04:51.845Z,53.32
2018-08-03T00:06:56.597Z,53.65
2018-08-03T00:09:01.491Z,53.45
2018-08-03T00:11:06.559Z,53.85
2018-08-03T00:13:11.596Z,54.12
2018-08-03T00:15:16.344Z,54.65
2018-08-03T00:17:21.177Z,54.22
2018-08-03T00:19:26.053Z,54.73
2018-08-03T00:21:31.164Z,54.17
2018-08-03T00:23:36.115Z,54.56
2018-08-03T00:25:40.887Z,54.23
2018-08-03T00:27:45.990Z,54.61
2018-08-03T00:29:50.720Z,54.60
2018-08-03T00:31:55.724Z,54.81
2018-08-03T00:34:00.468Z,54.50
2018-08-03T00:36:05.652Z,55.07
2018-08-03T00:38:10.699Z,54.81
2018-08-03T00:40:15.479Z,54.71
2018-08-03T00:42:20.163Z,54.80
2018-08-03T00:44:25.159Z,54.76
2018-08-03T00:46:30.262Z,55.19
2018-08-03T00:48:34.955Z,55.26
2018-08-03T00:50:39.697Z,54.86
2018-08-03T00:52:44.695Z,55.16
2018-08-03T00:54:49.387Z,55.42
2018-08-03T00:56:54.094Z,56.17
2018-08-03T00:58:58.855Z,55.83
2018-08-03T01:01:03.781Z,56.35
2018-08-03T01:03:09.378Z,56.71
2018-08-03T01:05:14.216Z,55.94
2018-08-03T01:07:19.233Z,56.44
2018-08-03T01:09:23.988Z,56.50
2018-08-03T01:11:28.840Z,57.08
2018-08-03T01:13:33.629Z,57.05
2018-08-03T01:15:38.524Z,56.96
2018-08-03T01:17:43.371Z,56.76
2018-08-03T01:19:48.166Z,57.46
2018-08-03T01:21:53.065Z,57.16
2018-08-03T01:23:57.797Z,57.80
2018-08-03T01:26:02.541Z,57.97
2018-08-03T01:28:09.160Z,57.91
2018-08-03T01:30:14.122Z,57.61
2018-08-03T01:32:18.942Z,57.98
2018-08-03T01:34:23.952Z,58.66
2018-08-03T01:36:29.008Z,57.98
2018-08-03T01:38:33.828Z,58.63
2018-08-03T01:40:39.089Z,58.39
2018-08-03T01:42:43.851Z,58.78
2018-08-03T01:44:49.076Z,58.40
2018-08-03T01:46:53.807Z,59.17
2018-08-03T01:48:58.526Z,58.63
2018-08-03T01:51:03.219Z,59.50
2018-08-03T01:53:08.013Z,59.54
2018-08-03T01:55:12.751Z,59.53
2018-08-03T01:57:17.515Z,59.26
2018-08-03T01:59:22.312Z,59.21
2018-08-03T02:01:27.244Z,59.70
2018-08-03T02:03:32.066Z,59.89
2018-08-03T02:05:37.024Z,59.79
2018-08-03T02:07:41.778Z,59.61
2018-08-03T02:09:46.827Z,60.33
2018-08-03T02:11:51.695Z,60.22
2018-08-03T02:13:56.551Z,60.30
2018-08-03T02:16:01.671Z,60.04
2018-08-03T02:18:06.663Z,59.19
2018-08-03T02:20:11.481Z,60.00
2018-08-03T02:22:16.243Z,59.72
2018-08-03T02:24:21.026Z,60.33
2018-08-03T02:26:26.569Z,60.15
2018-08-03T02:28:31.813Z,60.22
2018-08-03T02:30:36.649Z,60.13
2018-08-03T02:32:41.790Z,60.09
2018-08-03T02:34:46.757Z,60.10
2018-08-03T02:36:51.648Z,60.32
2018-08-03T02:38:56.438Z,60.19
2018-08-03T02:41:01.176Z,60.87
2018-08-03T02:43:05.944Z,60.66
2018-08-03T02:45:10.812Z,61.52
2018-08-03T02:47:15.493Z,61.77
2018-08-03T02:49:20.256Z,61.54
2018-08-03T02:51:24.984Z,61.49
2018-08-03T02:53:29.845Z,61.71
2018-08-03T02:55:34.543Z,61.97
2018-08-03T02:57:39.434Z,61.30
2018-08-03T02:59:44.236Z,61.81
2018-08-03T03:01:49.144Z,61.67
2018-08-03T03:03:54.079Z,62.03
2018-08-03T03:05:58.971Z,61.04
2018-08-03T03:08:03.619Z,61.45
2018-08-03T03:10:08.444Z,61.43
2018-08-03T03:12:13.229Z,62.21
2018-08-03T03:14:18.021Z,62.19
2018-08-03T03:16:23.089Z,61.86
2018-08-03T03:18:28.018Z,61.57
2018-08-03T03:20:33.136Z,62.52
2018-08-03T03:22:37.737Z,61.44
2018-08-03T03:24:42.544Z,62.55
2018-08-03T03:26:47.282Z,61.91
2018-08-03T03:28:52.182Z,62.16
2018-08-03T03:30:56.965Z,62.07
2018-08-03T03:33:01.756Z,62.27
2018-08-03T03:35:06.973Z,62.86
2018-08-03T03:37:11.754Z,62.16
2018-08-03T03:39:16.491Z,62.41
2018-08-03T03:41:21.415Z,62.66
2018-08-03T03:43:26.199Z,62.34
2018-08-03T03:45:31.153Z,62.36
2018-08-03T03:47:35.963Z,62.99
2018-08-03T03:49:40.713Z,62.96
2018-08-03T03:51:45.445Z,62.51
2018-08-03T03:53:50.202Z,62.80
2018-08-03T03:55:54.964Z,62.19
2018-08-03T03:57:59.711Z,61.44
2018-08-03T04:00:05.280Z,61.84
2018-08-03T04:02:10.311Z,62.37
2018-08-03T04:04:15.091Z,63.28
2018-08-03T04:06:20.575Z,62.97
2018-08-03T04:08:25.622Z,63.11
2018-08-03T04:10:30.350Z,62.84
2018-08-03T04:12:35.293Z,62.52
2018-08-03T04:14:40.306Z,62.69
2018-08-03T04:16:45.329Z,63.40
2018-08-03T04:18:50.401Z,63.01
2018-08-03T04:20:55.321Z,63.15
2018-08-03T04:23:00.327Z,63.26
2018-08-03T04:25:05.246Z,63.33
2018-08-03T04:27:10.067Z,63.81
2018-08-03T04:29:14.920Z,63.51
2018-08-03T04:31:19.738Z,63.32
2018-08-03T04:33:24.572Z,63.69
2018-08-03T04:35:29.442Z,63.17
2018-08-03T04:37:34.471Z,62.90
2018-08-03T04:39:39.134Z,63.58
2018-08-03T04:41:44.168Z,63.30
2018-08-03T04:43:49.029Z,62.73
2018-08-03T04:45:53.873Z,63.48
2018-08-03T04:47:58.783Z,63.24
2018-08-03T04:50:03.736Z,63.12
2018-08-03T04:52:08.572Z,63.50
2018-08-03T04:54:13.589Z,62.62
2018-08-03T04:56:18.465Z,62.95
2018-08-03T04:58:23.344Z,62.63
2018-08-03T05:00:28.340Z,63.17
2018-08-03T05:02:33.494Z,62.83
2018-08-03T05:04:38.217Z,63.05
2018-08-03T05:06:42.928Z,62.73
2018-08-03T05:08:47.841Z,62.78
2018-08-03T05:10:52.841Z,62.84
2018-08-03T05:12:57.794Z,62.96
2018-08-03T05:15:02.738Z,63.31
2018-08-03T05:17:07.655Z,63.56
2018-08-03T05:19:12.786Z,63.17
2018-08-03T05:21:17.672Z,63.49
2018-08-03T05:23:22.451Z,63.18
2018-08-03T05:25:27.455Z,62.65
2018-08-03T05:27:32.763Z,63.56
2018-08-03T05:29:37.832Z,62.73
2018-08-03T05:31:42.961Z,62.41
2018-08-03T05:33:47.784Z,62.33
2018-08-03T05:35:52.593Z,62.92
2018-08-03T05:37:57.324Z,62.70
2018-08-03T05:40:02.149Z,62.58
2018-08-03T05:42:07.157Z,62.86
2018-08-03T05:44:11.996Z,62.62
2018-08-03T05:46:16.812Z,61.78
2018-08-03T05:48:21.551Z,62.23
2018-08-03T05:50:26.248Z,61.96
2018-08-03T05:52:31.031Z,61.63
2018-08-03T05:54:35.920Z,61.92
2018-08-03T05:56:40.953Z,61.79
2018-08-03T05:58:46.160Z,61.75
2018-08-03T06:00:52.006Z,61.48
2018-08-03T06:02:56.889Z,62.23
2018-08-03T06:05:01.590Z,61.56
2018-08-03T06:07:06.450Z,61.54
2018-08-03T06:09:11.996Z,60.75
2018-08-03T06:11:16.808Z,61.09
2018-08-03T06:13:21.863Z,60.75
2018-08-03T06:15:27.088Z,61.28
2018-08-03T06:17:32.134Z,60.99
2018-08-03T06:19:37.191Z,60.77
2018-08-03T06:21:41.945Z,60.84
2018-08-03T06:23:46.685Z,60.17
2018-08-03T06:25:51.580Z,60.16
2018-08-03T06:27:56.370Z,59.59
2018-08-03T06:30:01.179Z,59.32
2018-08-03T06:32:06.284Z,59.28
2018-08-03T06:34:11.398Z,59.68
2018-08-03T06:36:16.292Z,60.14
2018-08-03T06:38:21.616Z,59.50
2018-08-03T06:40:26.480Z,59.29
2018-08-03T06:42:31.547Z,58.50
2018-08-03T06:44:36.389Z,59.50
2018-08-03T06:46:41.929Z,58.47
2018-08-03T06:48:46.785Z,57.94
2018-08-03T06:50:51.548Z,57.79
2018-08-03T06:52:56.802Z,57.83
2018-08-03T06:55:10.547Z,57.98
2018-08-03T06:57:19.973Z,57.21
2018-08-03T06:59:24.958Z,57.36
2018-08-03T07:01:29.894Z,57.18
2018-08-03T07:03:34.882Z,57.47
2018-08-03T07:05:39.616Z,57.76
2018-08-03T07:07:44.421Z,57.32
2018-08-03T07:09:49.581Z,58.22
2018-08-03T07:11:54.316Z,57.61
2018-08-03T07:13:59.115Z,56.39
2018-08-03T07:16:04.057Z,55.67
2018-08-03T07:18:09.221Z,54.55
2018-08-03T07:22:13.377Z,54.79
2018-08-03T07:24:18.125Z,55.67
2018-08-03T07:26:23.670Z,54.62
2018-08-03T07:28:28.622Z,54.41
2018-08-03T07:30:33.463Z,54.42
2018-08-03T07:32:38.258Z,55.99
2018-08-03T07:34:43.108Z,54.58
2018-08-03T07:36:47.966Z,53.95
2018-08-03T07:38:52.731Z,53.51
2018-08-03T07:40:57.569Z,53.77
2018-08-03T07:43:02.588Z,52.65
2018-08-03T07:45:08.291Z,53.08
2018-08-03T07:47:13.079Z,53.34
2018-08-03T07:49:18.008Z,52.54
2018-08-03T07:51:22.905Z,51.81
2018-08-03T07:53:27.634Z,51.77
2018-08-03T07:55:32.418Z,51.36
2018-08-03T07:57:37.296Z,51.60
2018-08-03T07:59:42.256Z,51.85
2018-08-03T08:01:47.131Z,51.43
2018-08-03T08:03:53.193Z,51.79
2018-08-03T08:05:58.053Z,50.85
2018-08-03T08:08:02.935Z,51.02
2018-08-03T08:10:07.955Z,50.72
2018-08-03T08:12:12.785Z,51.02
2018-08-03T08:14:17.664Z,50.80
2018-08-03T08:16:22.710Z,49.76
2018-08-03T08:18:28.144Z,50.30
2018-08-03T08:20:33.255Z,50.23
2018-08-03T08:22:39.083Z,50.10
2018-08-03T08:24:43.929Z,49.00
2018-08-03T08:26:48.828Z,49.35
2018-08-03T08:28:53.910Z,49.99
2018-08-03T08:30:58.875Z,49.59
2018-08-03T08:33:03.724Z,48.20
2018-08-03T08:35:08.732Z,49.11
2018-08-03T08:37:13.700Z,48.81
2018-08-03T08:39:18.676Z,49.66
2018-08-03T08:41:23.549Z,48.18
2018-08-03T08:43:28.533Z,48.74
2018-08-03T08:45:33.630Z,48.36
2018-08-03T08:47:38.779Z,49.01
2018-08-03T08:49:43.560Z,48.27
2018-08-03T08:51:48.419Z,48.72
2018-08-03T08:53:52.761Z,47.96
2018-08-03T08:55:57.622Z,48.83
2018-08-03T08:58:02.486Z,48.32
2018-08-03T09:00:07.399Z,47.50
2018-08-03T09:02:12.273Z,46.53
2018-08-03T09:04:17.011Z,46.46
2018-08-03T09:06:22.079Z,46.99
2018-08-03T09:08:26.891Z,46.47
2018-08-03T09:10:31.952Z,46.01
2018-08-03T09:12:37.482Z,46.32
2018-08-03T09:14:42.318Z,46.02
2018-08-03T09:16:47.521Z,45.58
2018-08-03T09:18:53.130Z,44.66
2018-08-03T09:20:57.986Z,45.05
2018-08-03T09:23:02.875Z,45.13
2018-08-03T09:25:08.080Z,45.07
2018-08-03T09:27:13.952Z,45.74
2018-08-03T09:29:18.773Z,44.46
2018-08-03T09:31:23.927Z,44.55
2018-08-03T09:33:29.015Z,44.66
2018-08-03T09:35:34.064Z,44.47
2018-08-03T09:37:38.802Z,45.13
2018-08-03T09:39:43.858Z,44.27
2018-08-03T09:41:49.084Z,44.53
2018-08-03T09:43:54.097Z,44.23
2018-08-03T09:45:58.907Z,43.03
2018-08-03T09:48:03.894Z,44.02
2018-08-03T09:50:08.709Z,44.87
2018-08-03T09:52:13.443Z,43.86
2018-08-03T09:54:18.574Z,43.10
2018-08-03T09:56:30.082Z,42.32
2018-08-03T09:58:35.115Z,42.64
2018-08-03T10:00:45.036Z,43.47
2018-08-03T10:02:49.818Z,42.17
2018-08-03T10:04:54.568Z,42.30
2018-08-03T10:06:59.418Z,40.93
2018-08-03T10:09:05.767Z,41.16
2018-08-03T10:11:11.466Z,42.04
2018-08-03T10:13:16.977Z,42.58
2018-08-03T10:15:21.761Z,42.46
2018-08-03T10:17:27.150Z,42.31
2018-08-03T10:19:32.198Z,42.30
2018-08-03T10:21:37.086Z,41.54
2018-08-03T10:23:41.946Z,41.83
2018-08-03T10:25:46.636Z,42.60
2018-08-03T10:27:51.420Z,41.67
2018-08-03T10:29:56.496Z,42.60
2018-08-03T10:32:01.736Z,41.96
2018-08-03T10:34:06.889Z,40.81
2018-08-03T10:36:11.718Z,41.02
2018-08-03T10:38:16.551Z,41.35
2018-08-03T10:40:21.445Z,41.65
2018-08-03T10:42:26.560Z,40.94
2018-08-03T10:44:31.261Z,40.40
2018-08-03T10:46:35.964Z,40.47
2018-08-03T10:48:40.944Z,40.31
2018-08-03T10:50:45.699Z,40.31
2018-08-03T10:52:50.565Z,39.71
2018-08-03T10:54:55.419Z,39.78
2018-08-03T10:57:01.104Z,40.02
2018-08-03T10:59:05.872Z,40.21
2018-08-03T11:01:10.865Z,38.91
2018-08-03T11:03:15.649Z,39.33
2018-08-03T11:05:20.364Z,39.17
2018-08-03T11:07:25.368Z,39.75
2018-08-03T11:09:34.204Z,39.44
2018-08-03T11:11:40.015Z,38.33
2018-08-03T11:13:45.741Z,36.22
2018-08-03T11:15:50.538Z,36.26
2018-08-03T11:17:56.867Z,36.18
2018-08-03T11:20:02.493Z,38.00
2018-08-03T11:22:10.518Z,36.46
2018-08-03T11:24:15.381Z,36.49
2018-08-03T11:26:20.515Z,37.13
2018-08-03T11:28:25.349Z,37.10
2018-08-03T11:30:30.160Z,36.92
2018-08-03T11:32:35.167Z,34.96
2018-08-03T11:34:40.624Z,34.09
2018-08-03T11:36:45.521Z,34.68
2018-08-03T11:38:50.337Z,34.88
2018-08-03T11:40:55.234Z,33.90
2018-08-03T11:43:00.017Z,34.67
2018-08-03T11:45:05.395Z,34.67
2018-08-03T11:47:11.565Z,34.60
2018-08-03T11:49:16.310Z,34.71
2018-08-03T11:51:21.347Z,34.26
2018-08-03T11:53:26.140Z,34.78
2018-08-03T11:55:30.985Z,35.20
2018-08-03T11:57:39.067Z,34.35
2018-08-03T11:59:49.142Z,33.58
2018-08-03T12:01:54.020Z,32.64
2018-08-03T12:03:58.786Z,33.80
2018-08-03T12:06:03.709Z,33.79
2018-08-03T12:08:08.594Z,33.28
2018-08-03T12:10:13.395Z,33.15
2018-08-03T12:12:18.480Z,32.39
2018-08-03T12:14:23.362Z,31.41
2018-08-03T12:16:28.255Z,33.00
2018-08-03T12:18:33.135Z,32.25
2018-08-03T12:20:38.007Z,32.97
2018-08-03T12:22:44.072Z,32.96
2018-08-03T12:24:49.186Z,32.18
2018-08-03T12:26:55.805Z,31.56
2018-08-03T12:29:00.702Z,32.28
2018-08-03T12:31:05.588Z,31.48
2018-08-03T12:33:10.466Z,31.90
2018-08-03T12:35:15.373Z,30.95
2018-08-03T12:37:20.305Z,30.77
2018-08-03T12:39:25.348Z,31.23
2018-08-03T12:41:30.363Z,30.85
2018-08-03T12:43:35.446Z,31.80
2018-08-03T12:45:40.252Z,29.99
2018-08-03T12:47:45.738Z,30.36
2018-08-03T12:49:50.704Z,31.46
2018-08-03T12:51:55.571Z,31.39
2018-08-03T12:54:00.448Z,30.98
2018-08-03T12:56:05.459Z,31.11
2018-08-03T12:58:10.581Z,30.28
2018-08-03T13:00:15.692Z,29.66
2018-08-03T13:02:20.574Z,30.95
2018-08-03T13:04:25.648Z,29.57
2018-08-03T13:06:31.071Z,28.70
2018-08-03T13:08:36.242Z,29.55
2018-08-03T13:10:41.013Z,27.84
2018-08-03T13:12:45.860Z,30.06
2018-08-03T13:14:50.640Z,28.77
2018-08-03T13:16:55.610Z,29.85
2018-08-03T13:19:00.770Z,28.86
2018-08-03T13:21:20.992Z,29.15
2018-08-03T13:23:25.973Z,29.38
2018-08-03T13:25:31.195Z,29.39
2018-08-03T13:27:36.683Z,29.01
2018-08-03T13:29:41.967Z,29.40
2018-08-03T13:31:47.223Z,29.70
2018-08-03T13:33:52.655Z,29.40
2018-08-03T13:35:57.500Z,30.16
2018-08-03T13:38:02.471Z,29.59
2018-08-03T13:40:07.388Z,29.28
2018-08-03T13:42:12.570Z,28.71
2018-08-03T13:44:17.499Z,28.17
2018-08-03T13:46:23.442Z,29.42
2018-08-03T13:48:28.387Z,29.20
2018-08-03T13:50:33.509Z,28.60
2018-08-03T13:52:38.541Z,29.29
2018-08-03T13:54:43.856Z,28.36
2018-08-03T13:56:48.959Z,28.26
2018-08-03T13:58:54.202Z,28.47
2018-08-03T14:01:15.684Z,28.34
2018-08-03T14:03:20.642Z,28.87
2018-08-03T14:05:25.628Z,29.36
2018-08-03T14:07:30.494Z,28.85
2018-08-03T14:09:35.446Z,28.01
2018-08-03T14:11:41.089Z,27.96
2018-08-03T14:13:46.267Z,27.77
2018-08-03T14:15:51.006Z,28.41
2018-08-03T14:18:00.347Z,28.21
2018-08-03T14:20:06.860Z,28.28
2018-08-03T14:22:12.328Z,27.81
2018-08-03T14:24:17.271Z,27.51
2018-08-03T14:26:22.188Z,27.53
2018-08-03T14:28:27.236Z,27.31
2018-08-03T14:30:32.008Z,25.99
2018-08-03T14:32:36.998Z,27.46
2018-08-03T14:34:41.924Z,27.54
2018-08-03T14:36:47.087Z,26.97
2018-08-03T14:38:51.778Z,27.05
2018-08-03T14:40:56.937Z,27.05
2018-08-03T14:43:03.210Z,27.96
2018-08-03T14:45:10.450Z,28.12
2018-08-03T14:47:15.535Z,27.43
2018-08-03T14:49:20.576Z,28.14
2018-08-03T14:51:25.547Z,26.86
2018-08-03T14:53:30.412Z,26.60
2018-08-03T14:55:35.286Z,26.24
2018-08-03T14:57:40.403Z,26.98
2018-08-03T14:59:58.571Z,26.80
2018-08-03T15:02:03.666Z,27.11
2018-08-03T15:04:08.560Z,26.61
2018-08-03T15:06:13.344Z,27.47
2018-08-03T15:08:18.191Z,26.60
2018-08-03T15:10:23.752Z,26.26
2018-08-03T15:12:28.628Z,25.96
2018-08-03T15:14:33.700Z,26.16
2018-08-03T15:16:38.644Z,26.71
2018-08-03T15:18:43.996Z,26.17
2018-08-03T15:20:48.917Z,25.60
2018-08-03T15:22:53.860Z,26.11
2018-08-03T15:24:58.613Z,25.78
2018-08-03T15:27:04.216Z,26.16
2018-08-03T15:29:09.155Z,26.30
2018-08-03T15:31:14.107Z,26.37
2018-08-03T15:33:18.932Z,25.02
2018-08-03T15:35:23.993Z,24.61
2018-08-03T15:37:29.109Z,25.59
2018-08-03T15:39:34.428Z,25.20
2018-08-03T15:41:39.235Z,24.66
2018-08-03T15:43:44.276Z,25.26
2018-08-03T15:45:49.055Z,26.34
2018-08-03T15:47:53.944Z,25.17
2018-08-03T15:49:58.802Z,25.62
2018-08-03T15:52:03.511Z,24.90
2018-08-03T15:54:08.452Z,24.84
2018-08-03T15:56:13.409Z,24.82
2018-08-03T15:58:19.010Z,24.31
2018-08-03T16:00:23.870Z,25.20
2018-08-03T16:02:29.272Z,24.69
2018-08-03T16:04:34.103Z,24.62
2018-08-03T16:06:38.996Z,24.65
2018-08-03T16:08:43.812Z,24.84
2018-08-03T16:10:48.575Z,24.00
2018-08-03T16:12:56.490Z,24.59
2018-08-03T16:15:00.966Z,24.56
2018-08-03T16:17:05.892Z,23.36
2018-08-03T16:19:10.744Z,23.29
2018-08-03T16:21:15.667Z,23.15
2018-08-03T16:23:20.562Z,24.25
2018-08-03T16:25:25.448Z,24.82
2018-08-03T16:27:30.590Z,24.30
2018-08-03T16:29:35.631Z,24.94
2018-08-03T16:31:40.758Z,25.06
2018-08-03T16:33:45.739Z,25.91
2018-08-03T16:35:50.539Z,25.38
2018-08-03T16:37:55.358Z,24.83
2018-08-03T16:40:01.107Z,25.49
2018-08-03T16:42:06.164Z,25.58
2018-08-03T16:44:11.126Z,25.85
2018-08-03T16:46:16.013Z,26.35
2018-08-03T16:48:20.994Z,26.23
2018-08-03T16:50:25.808Z,26.09
2018-08-03T16:52:30.937Z,25.70
2018-08-03T16:54:35.865Z,25.82
2018-08-03T16:56:40.661Z,25.55
2018-08-03T16:58:45.573Z,25.94
2018-08-03T17:00:50.333Z,25.91
2018-08-03T17:02:55.372Z,26.08
2018-08-03T17:05:00.190Z,26.33
2018-08-03T17:07:05.222Z,26.63
2018-08-03T17:09:10.755Z,25.99
2018-08-03T17:11:15.703Z,25.90
2018-08-03T17:13:20.677Z,25.43
2018-08-03T17:15:25.534Z,25.92
2018-08-03T17:17:30.339Z,25.96
2018-08-03T17:19:35.387Z,26.23
2018-08-03T17:21:40.146Z,26.73
2018-08-03T17:23:44.921Z,26.25
2018-08-03T17:25:49.894Z,26.46
2018-08-03T17:27:54.902Z,26.25
2018-08-03T17:29:59.927Z,26.61
2018-08-03T17:32:04.997Z,27.12
2018-08-03T17:34:09.729Z,26.28
2018-08-03T17:36:14.855Z,26.83
2018-08-03T17:38:19.695Z,27.53
2018-08-03T17:40:24.488Z,27.22
2018-08-03T17:42:29.566Z,27.04
2018-08-03T17:44:35.522Z,27.38
2018-08-03T17:46:40.356Z,27.88
2018-08-03T17:48:45.304Z,28.08
2018-08-03T17:50:50.373Z,28.16
2018-08-03T17:52:55.464Z,27.98
2018-08-03T17:55:00.508Z,28.94
2018-08-03T17:57:05.806Z,29.04
2018-08-03T17:59:10.185Z,29.29
2018-08-03T18:01:15.056Z,29.06
2018-08-03T18:03:19.990Z,29.52
2018-08-03T18:05:24.511Z,29.95
2018-08-03T18:07:29.049Z,29.71
2018-08-03T18:09:34.175Z,29.66
2018-08-03T18:11:39.189Z,29.34
2018-08-03T18:13:44.183Z,29.97
2018-08-03T18:15:49.267Z,30.62
2018-08-03T18:17:54.333Z,30.87
2018-08-03T18:19:59.376Z,30.13
2018-08-03T18:22:03.830Z,30.29
2018-08-03T18:24:08.878Z,30.96
2018-08-03T18:26:13.315Z,31.14
2018-08-03T18:28:18.191Z,30.83
2018-08-03T18:30:23.050Z,30.73
2018-08-03T18:32:28.005Z,30.41
2018-08-03T18:34:32.972Z,30.68
2018-08-03T18:36:38.011Z,30.64
2018-08-03T18:38:43.173Z,31.29
2018-08-03T18:40:47.754Z,31.48
2018-08-03T18:42:52.577Z,31.06
2018-08-03T18:44:58.629Z,31.28
2018-08-03T18:47:03.728Z,31.44
2018-08-03T18:49:08.876Z,30.98
2018-08-03T18:51:13.963Z,31.71
2018-08-03T18:53:18.886Z,31.21
2018-08-03T18:55:24.248Z,31.55
2018-08-03T18:57:28.762Z,31.84
2018-08-03T18:59:33.861Z,31.21
2018-08-03T19:01:38.951Z,31.66
2018-08-03T19:03:43.871Z,33.00
2018-08-03T19:05:48.797Z,31.83
2018-08-03T19:07:53.899Z,32.02
2018-08-03T19:09:58.845Z,32.51
2018-08-03T19:12:03.811Z,32.34
2018-08-03T19:14:08.757Z,33.00
2018-08-03T19:16:13.768Z,33.03
2018-08-03T19:18:18.623Z,33.71
2018-08-03T19:20:23.750Z,33.48
2018-08-03T19:22:30.573Z,32.81
2018-08-03T19:24:37.724Z,32.89
2018-08-03T19:26:46.936Z,33.54
2018-08-03T19:28:52.615Z,33.94
2018-08-03T19:30:58.774Z,33.43
2018-08-03T19:33:03.713Z,34.36
2018-08-03T19:35:09.955Z,33.68
2018-08-03T19:37:14.949Z,34.36
2018-08-03T19:39:21.016Z,34.68
2018-08-03T19:41:25.974Z,34.05
2018-08-03T19:43:31.857Z,34.91
2018-08-03T19:45:37.057Z,35.17
2018-08-03T19:47:42.066Z,35.82
2018-08-03T19:49:47.288Z,34.93
2018-08-03T19:51:52.329Z,35.48
2018-08-03T19:53:57.444Z,36.35
2018-08-03T19:56:02.505Z,36.08
2018-08-03T19:58:07.751Z,36.14
2018-08-03T20:00:13.137Z,35.93
2018-08-03T20:02:18.874Z,35.88
2018-08-03T20:04:23.859Z,36.66
2018-08-03T20:06:28.921Z,35.76
2018-08-03T20:08:33.849Z,36.68
2018-08-03T20:10:39.051Z,36.17
2018-08-03T20:12:44.726Z,36.81
2018-08-03T20:14:49.933Z,36.60
2018-08-03T20:16:55.070Z,36.62
2018-08-03T20:21:02.743Z,36.53
2018-08-03T20:23:08.130Z,36.78
2018-08-03T20:25:14.355Z,37.10
2018-08-03T20:27:19.579Z,37.54
2018-08-03T20:29:34.683Z,37.52
2018-08-03T20:31:39.993Z,37.10
2018-08-03T20:33:45.126Z,37.50
2018-08-03T20:35:49.610Z,37.57
2018-08-03T20:37:54.625Z,37.27
2018-08-03T20:39:59.584Z,37.79
2018-08-03T20:42:04.547Z,37.63
2018-08-03T20:44:09.476Z,37.12
2018-08-03T20:46:14.491Z,37.08
2018-08-03T20:48:19.602Z,37.95
2018-08-03T20:50:24.964Z,37.63
2018-08-03T20:52:30.356Z,37.88
2018-08-03T20:54:35.538Z,38.61
2018-08-03T20:56:40.402Z,38.12
2018-08-03T20:58:45.353Z,39.02
2018-08-03T21:00:50.267Z,38.39
2018-08-03T21:02:55.144Z,39.31
2018-08-03T21:04:59.920Z,38.94
2018-08-03T21:07:04.725Z,39.71
2018-08-03T21:09:11.745Z,39.43
2018-08-03T21:11:16.555Z,39.03
2018-08-03T21:13:21.728Z,38.96
2018-08-03T21:15:26.596Z,39.91
2018-08-03T21:17:31.504Z,39.22
2018-08-03T21:19:36.405Z,39.82
2018-08-03T21:21:47.752Z,39.34
2018-08-03T21:23:52.720Z,40.06
2018-08-03T21:25:57.632Z,39.33
2018-08-03T21:28:02.509Z,39.65
2018-08-03T21:30:12.194Z,40.37
2018-08-03T21:32:16.969Z,40.84
2018-08-03T21:34:21.780Z,39.65
2018-08-03T21:36:26.838Z,40.51
2018-08-03T21:38:42.910Z,40.20
2018-08-03T21:40:47.659Z,40.92
2018-08-03T21:42:52.457Z,40.69
2018-08-03T21:44:56.903Z,40.12
2018-08-03T21:47:02.026Z,40.79
2018-08-03T21:49:07.132Z,41.11
2018-08-03T21:51:11.979Z,41.42
2018-08-03T21:53:17.547Z,40.74
2018-08-03T21:55:22.580Z,41.53
2018-08-03T21:57:27.421Z,41.40
2018-08-03T21:59:31.878Z,40.81
2018-08-03T22:01:36.614Z,41.58
2018-08-03T22:03:41.803Z,41.53
2018-08-03T22:05:46.687Z,42.27
2018-08-03T22:07:51.435Z,41.76
2018-08-03T22:09:56.118Z,42.04
2018-08-03T22:12:01.017Z,41.87
2018-08-03T22:14:05.767Z,42.17
2018-08-03T22:16:13.012Z,42.98
2018-08-03T22:18:17.799Z,42.64
2018-08-03T22:20:22.693Z,42.92
2018-08-03T22:22:27.703Z,42.30
2018-08-03T22:24:32.597Z,43.22
2018-08-03T22:26:37.388Z,43.39
2018-08-03T22:28:42.679Z,43.57
2018-08-03T22:30:49.553Z,43.67
2018-08-03T22:32:54.310Z,43.86
2018-08-03T22:34:58.978Z,43.37
2018-08-03T22:37:03.532Z,43.20
2018-08-03T22:39:11.108Z,44.10
2018-08-03T22:41:18.541Z,43.91
2018-08-03T22:43:26.451Z,44.10
2018-08-03T22:45:32.104Z,44.21
2018-08-03T22:47:39.441Z,43.63
2018-08-03T22:49:47.224Z,44.29
2018-08-03T22:51:51.989Z,44.01
2018-08-03T22:53:56.687Z,44.44
2018-08-03T22:56:01.440Z,44.00
2018-08-03T22:58:06.418Z,44.07
2018-08-03T23:00:11.270Z,44.78
2018-08-03T23:02:17.557Z,45.04
2018-08-03T23:04:22.262Z,44.92
2018-08-03T23:06:27.010Z,45.08
2018-08-03T23:08:31.829Z,45.29
2018-08-03T23:10:39.022Z,45.80
2018-08-03T23:12:43.755Z,45.28
2018-08-03T23:14:48.987Z,46.24
2018-08-03T23:16:55.962Z,45.65
2018-08-03T23:19:00.835Z,46.05
2018-08-03T23:21:05.742Z,45.61
2018-08-03T23:23:10.634Z,46.18
2018-08-03T23:25:15.448Z,45.47
2018-08-03T23:27:20.262Z,46.65
2018-08-03T23:29:25.335Z,46.16
2018-08-03T23:31:31.591Z,46.66
2018-08-03T23:33:36.366Z,47.22
2018-08-03T23:35:41.315Z,46.74
2018-08-03T23:37:46.303Z,46.69
2018-08-03T23:39:51.156Z,47.70
2018-08-03T23:41:55.906Z,47.97
2018-08-03T23:44:01.035Z,48.17
2018-08-03T23:46:06.183Z,47.67
2018-08-03T23:48:10.976Z,48.08
2018-08-03T23:50:17.961Z,48.52
2018-08-03T23:52:22.932Z,48.59
2018-08-03T23:54:27.673Z,48.65
2018-08-03T23:56:32.480Z,48.50
2018-08-03T23:58:37.193Z,48.66
